sensor_id;sensor_type;location;lat;lon;timestamp;P1;durP1;ratioP1;P2;durP2;ratioP2
6834;SDS011;3455;42.150;24.734;2022-10-31T00:01:44;3.87;;;2.37;;
6834;SDS011;3455;42.150;24.734;2022-10-31T00:04:10;3.30;;;2.80;;
6834;SDS011;3455;42.150;24.734;2022-10-31T00:06:37;3.80;;;2.73;;
6834;SDS011;3455;42.150;24.734;2022-10-31T00:09:04;4.00;;;2.50;;
6834;SDS011;3455;42.150;24.734;2022-10-31T00:11:32;2.97;;;2.03;;
6834;SDS011;3455;42.150;24.734;2022-10-31T00:13:59;2.43;;;2.27;;
6834;SDS011;3455;42.150;24.734;2022-10-31T00:16:27;3.83;;;2.80;;
6834;SDS011;3455;42.150;24.734;2022-10-31T00:18:55;4.27;;;2.47;;
6834;SDS011;3455;42.150;24.734;2022-10-31T00:21:23;5.33;;;2.13;;
6834;SDS011;3455;42.150;24.734;2022-10-31T00:23:50;5.13;;;2.93;;
6834;SDS011;3455;42.150;24.734;2022-10-31T00:26:17;2.77;;;2.57;;
6834;SDS011;3455;42.150;24.734;2022-10-31T00:28:45;8.60;;;2.50;;
6834;SDS011;3455;42.150;24.734;2022-10-31T00:31:12;4.47;;;2.70;;
6834;SDS011;3455;42.150;24.734;2022-10-31T00:33:39;4.97;;;2.43;;
6834;SDS011;3455;42.150;24.734;2022-10-31T00:36:07;7.30;;;3.03;;
6834;SDS011;3455;42.150;24.734;2022-10-31T00:38:37;4.47;;;2.93;;
6834;SDS011;3455;42.150;24.734;2022-10-31T00:41:04;3.37;;;2.00;;
6834;SDS011;3455;42.150;24.734;2022-10-31T00:43:31;3.30;;;2.53;;
6834;SDS011;3455;42.150;24.734;2022-10-31T00:45:59;3.70;;;2.50;;
6834;SDS011;3455;42.150;24.734;2022-10-31T00:48:26;2.63;;;2.47;;
6834;SDS011;3455;42.150;24.734;2022-10-31T00:50:52;4.17;;;2.63;;
6834;SDS011;3455;42.150;24.734;2022-10-31T00:53:19;4.67;;;2.60;;
6834;SDS011;3455;42.150;24.734;2022-10-31T00:55:46;2.97;;;2.67;;
6834;SDS011;3455;42.150;24.734;2022-10-31T00:58:13;6.33;;;2.37;;
6834;SDS011;3455;42.150;24.734;2022-10-31T01:00:39;4.60;;;2.17;;
6834;SDS011;3455;42.150;24.734;2022-10-31T01:03:08;3.77;;;2.50;;
6834;SDS011;3455;42.150;24.734;2022-10-31T01:05:34;5.30;;;2.73;;
6834;SDS011;3455;42.150;24.734;2022-10-31T01:08:01;2.40;;;1.70;;
6834;SDS011;3455;42.150;24.734;2022-10-31T01:10:28;3.07;;;2.70;;
6834;SDS011;3455;42.150;24.734;2022-10-31T01:12:54;3.60;;;2.30;;
6834;SDS011;3455;42.150;24.734;2022-10-31T01:15:22;2.77;;;2.40;;
6834;SDS011;3455;42.150;24.734;2022-10-31T01:17:49;2.30;;;2.10;;
6834;SDS011;3455;42.150;24.734;2022-10-31T01:20:17;2.70;;;2.50;;
6834;SDS011;3455;42.150;24.734;2022-10-31T01:22:44;4.40;;;1.87;;
6834;SDS011;3455;42.150;24.734;2022-10-31T01:25:11;6.47;;;2.40;;
6834;SDS011;3455;42.150;24.734;2022-10-31T01:27:38;2.73;;;2.50;;
6834;SDS011;3455;42.150;24.734;2022-10-31T01:30:05;3.20;;;2.87;;
6834;SDS011;3455;42.150;24.734;2022-10-31T01:32:32;5.30;;;2.47;;
6834;SDS011;3455;42.150;24.734;2022-10-31T01:34:59;3.33;;;2.70;;
6834;SDS011;3455;42.150;24.734;2022-10-31T01:37:27;2.23;;;2.03;;
6834;SDS011;3455;42.150;24.734;2022-10-31T01:39:54;2.40;;;2.23;;
6834;SDS011;3455;42.150;24.734;2022-10-31T01:42:21;4.97;;;2.70;;
6834;SDS011;3455;42.150;24.734;2022-10-31T01:44:53;4.07;;;2.40;;
6834;SDS011;3455;42.150;24.734;2022-10-31T01:50:11;4.40;;;2.17;;
6834;SDS011;3455;42.150;24.734;2022-10-31T01:52:43;3.20;;;2.40;;
6834;SDS011;3455;42.150;24.734;2022-10-31T01:55:13;29.20;;;10.50;;
6834;SDS011;3455;42.150;24.734;2022-10-31T01:57:45;5.67;;;2.50;;
6834;SDS011;3455;42.150;24.734;2022-10-31T02:00:14;2.73;;;2.30;;
6834;SDS011;3455;42.150;24.734;2022-10-31T02:02:42;3.83;;;3.17;;
6834;SDS011;3455;42.150;24.734;2022-10-31T02:05:09;4.70;;;2.47;;
6834;SDS011;3455;42.150;24.734;2022-10-31T02:07:39;4.87;;;2.43;;
6834;SDS011;3455;42.150;24.734;2022-10-31T02:10:13;5.17;;;2.47;;
6834;SDS011;3455;42.150;24.734;2022-10-31T02:12:41;4.87;;;2.90;;
6834;SDS011;3455;42.150;24.734;2022-10-31T02:15:08;3.50;;;1.92;;
6834;SDS011;3455;42.150;24.734;2022-10-31T02:17:35;3.53;;;3.23;;
6834;SDS011;3455;42.150;24.734;2022-10-31T02:20:05;6.50;;;2.40;;
6834;SDS011;3455;42.150;24.734;2022-10-31T02:22:41;5.70;;;2.17;;
6834;SDS011;3455;42.150;24.734;2022-10-31T02:25:30;2.90;;;2.37;;
6834;SDS011;3455;42.150;24.734;2022-10-31T02:28:25;3.37;;;1.83;;
6834;SDS011;3455;42.150;24.734;2022-10-31T02:31:05;8.13;;;2.90;;
6834;SDS011;3455;42.150;24.734;2022-10-31T02:33:45;2.70;;;1.80;;
6834;SDS011;3455;42.150;24.734;2022-10-31T02:36:19;3.13;;;2.40;;
6834;SDS011;3455;42.150;24.734;2022-10-31T02:38:54;6.00;;;2.67;;
6834;SDS011;3455;42.150;24.734;2022-10-31T02:41:30;5.55;;;2.65;;
6834;SDS011;3455;42.150;24.734;2022-10-31T02:44:03;3.67;;;2.38;;
6834;SDS011;3455;42.150;24.734;2022-10-31T02:46:37;2.40;;;2.10;;
6834;SDS011;3455;42.150;24.734;2022-10-31T02:49:11;5.25;;;2.40;;
6834;SDS011;3455;42.150;24.734;2022-10-31T02:51:44;5.65;;;2.30;;
6834;SDS011;3455;42.150;24.734;2022-10-31T02:54:18;3.70;;;2.22;;
6834;SDS011;3455;42.150;24.734;2022-10-31T02:56:48;3.15;;;2.47;;
6834;SDS011;3455;42.150;24.734;2022-10-31T02:59:17;7.72;;;2.58;;
6834;SDS011;3455;42.150;24.734;2022-10-31T03:01:56;3.13;;;2.75;;
6834;SDS011;3455;42.150;24.734;2022-10-31T03:04:37;6.18;;;2.67;;
6834;SDS011;3455;42.150;24.734;2022-10-31T03:07:15;6.60;;;2.20;;
6834;SDS011;3455;42.150;24.734;2022-10-31T03:09:51;6.30;;;2.72;;
6834;SDS011;3455;42.150;24.734;2022-10-31T03:12:27;3.58;;;2.30;;
6834;SDS011;3455;42.150;24.734;2022-10-31T03:15:00;5.18;;;2.35;;
6834;SDS011;3455;42.150;24.734;2022-10-31T03:17:39;5.22;;;2.20;;
6834;SDS011;3455;42.150;24.734;2022-10-31T03:20:12;3.90;;;2.20;;
6834;SDS011;3455;42.150;24.734;2022-10-31T03:22:41;6.93;;;2.57;;
6834;SDS011;3455;42.150;24.734;2022-10-31T03:25:09;3.47;;;2.53;;
6834;SDS011;3455;42.150;24.734;2022-10-31T03:27:38;3.33;;;2.10;;
6834;SDS011;3455;42.150;24.734;2022-10-31T03:30:07;2.45;;;2.08;;
6834;SDS011;3455;42.150;24.734;2022-10-31T03:32:34;3.17;;;2.20;;
6834;SDS011;3455;42.150;24.734;2022-10-31T03:35:06;2.95;;;2.75;;
6834;SDS011;3455;42.150;24.734;2022-10-31T03:37:35;7.60;;;2.43;;
6834;SDS011;3455;42.150;24.734;2022-10-31T03:40:04;6.47;;;3.07;;
6834;SDS011;3455;42.150;24.734;2022-10-31T03:42:34;4.88;;;2.50;;
6834;SDS011;3455;42.150;24.734;2022-10-31T03:45:06;4.45;;;2.50;;
6834;SDS011;3455;42.150;24.734;2022-10-31T03:47:38;3.03;;;2.47;;
6834;SDS011;3455;42.150;24.734;2022-10-31T03:50:06;3.58;;;2.55;;
6834;SDS011;3455;42.150;24.734;2022-10-31T03:52:35;2.67;;;2.47;;
6834;SDS011;3455;42.150;24.734;2022-10-31T03:55:08;4.07;;;2.53;;
6834;SDS011;3455;42.150;24.734;2022-10-31T03:57:43;2.92;;;2.42;;
6834;SDS011;3455;42.150;24.734;2022-10-31T04:00:15;3.55;;;2.50;;
6834;SDS011;3455;42.150;24.734;2022-10-31T04:02:45;4.78;;;2.45;;
6834;SDS011;3455;42.150;24.734;2022-10-31T04:05:16;4.63;;;2.42;;
6834;SDS011;3455;42.150;24.734;2022-10-31T04:07:45;4.07;;;2.57;;
6834;SDS011;3455;42.150;24.734;2022-10-31T04:10:16;3.08;;;2.60;;
6834;SDS011;3455;42.150;24.734;2022-10-31T04:12:46;10.93;;;2.60;;
6834;SDS011;3455;42.150;24.734;2022-10-31T04:15:16;8.50;;;2.60;;
6834;SDS011;3455;42.150;24.734;2022-10-31T04:17:46;2.67;;;2.47;;
6834;SDS011;3455;42.150;24.734;2022-10-31T04:20:17;3.13;;;2.50;;
6834;SDS011;3455;42.150;24.734;2022-10-31T04:22:44;5.80;;;2.60;;
6834;SDS011;3455;42.150;24.734;2022-10-31T04:25:11;7.80;;;2.80;;
6834;SDS011;3455;42.150;24.734;2022-10-31T04:27:37;6.03;;;2.43;;
6834;SDS011;3455;42.150;24.734;2022-10-31T04:30:04;6.23;;;3.30;;
6834;SDS011;3455;42.150;24.734;2022-10-31T04:32:32;2.50;;;2.33;;
6834;SDS011;3455;42.150;24.734;2022-10-31T04:35:00;3.10;;;2.57;;
6834;SDS011;3455;42.150;24.734;2022-10-31T04:37:27;3.83;;;2.90;;
6834;SDS011;3455;42.150;24.734;2022-10-31T04:39:54;2.97;;;2.77;;
6834;SDS011;3455;42.150;24.734;2022-10-31T04:42:20;4.23;;;2.17;;
6834;SDS011;3455;42.150;24.734;2022-10-31T04:44:47;3.43;;;2.43;;
6834;SDS011;3455;42.150;24.734;2022-10-31T04:47:14;2.90;;;2.45;;
6834;SDS011;3455;42.150;24.734;2022-10-31T04:49:40;3.20;;;2.20;;
6834;SDS011;3455;42.150;24.734;2022-10-31T04:52:08;3.10;;;2.40;;
6834;SDS011;3455;42.150;24.734;2022-10-31T04:54:35;6.40;;;3.37;;
6834;SDS011;3455;42.150;24.734;2022-10-31T04:57:02;8.77;;;3.03;;
6834;SDS011;3455;42.150;24.734;2022-10-31T04:59:29;6.10;;;2.47;;
6834;SDS011;3455;42.150;24.734;2022-10-31T05:01:55;4.30;;;2.87;;
6834;SDS011;3455;42.150;24.734;2022-10-31T05:04:22;5.10;;;2.13;;
6834;SDS011;3455;42.150;24.734;2022-10-31T05:06:49;4.53;;;3.20;;
6834;SDS011;3455;42.150;24.734;2022-10-31T05:09:17;7.60;;;2.60;;
6834;SDS011;3455;42.150;24.734;2022-10-31T05:11:44;8.30;;;2.87;;
6834;SDS011;3455;42.150;24.734;2022-10-31T05:14:10;3.27;;;2.40;;
6834;SDS011;3455;42.150;24.734;2022-10-31T05:16:37;6.10;;;2.73;;
6834;SDS011;3455;42.150;24.734;2022-10-31T05:19:04;5.83;;;2.50;;
6834;SDS011;3455;42.150;24.734;2022-10-31T05:21:31;4.83;;;2.70;;
6834;SDS011;3455;42.150;24.734;2022-10-31T05:23:57;8.33;;;3.00;;
6834;SDS011;3455;42.150;24.734;2022-10-31T05:26:25;11.97;;;2.97;;
6834;SDS011;3455;42.150;24.734;2022-10-31T05:28:52;5.83;;;2.63;;
6834;SDS011;3455;42.150;24.734;2022-10-31T05:31:19;7.57;;;2.93;;
6834;SDS011;3455;42.150;24.734;2022-10-31T05:33:45;7.43;;;2.63;;
6834;SDS011;3455;42.150;24.734;2022-10-31T05:36:12;2.83;;;2.43;;
6834;SDS011;3455;42.150;24.734;2022-10-31T05:38:39;6.27;;;2.67;;
6834;SDS011;3455;42.150;24.734;2022-10-31T05:41:06;4.93;;;3.37;;
6834;SDS011;3455;42.150;24.734;2022-10-31T05:43:34;4.80;;;3.00;;
6834;SDS011;3455;42.150;24.734;2022-10-31T05:46:00;6.25;;;3.03;;
6834;SDS011;3455;42.150;24.734;2022-10-31T05:48:27;4.60;;;3.22;;
6834;SDS011;3455;42.150;24.734;2022-10-31T05:50:54;5.10;;;2.83;;
6834;SDS011;3455;42.150;24.734;2022-10-31T05:53:21;5.28;;;2.50;;
6834;SDS011;3455;42.150;24.734;2022-10-31T05:55:47;4.97;;;3.28;;
6834;SDS011;3455;42.150;24.734;2022-10-31T05:58:14;5.70;;;3.13;;
6834;SDS011;3455;42.150;24.734;2022-10-31T06:00:42;11.45;;;2.67;;
6834;SDS011;3455;42.150;24.734;2022-10-31T06:03:09;4.03;;;3.03;;
6834;SDS011;3455;42.150;24.734;2022-10-31T06:05:36;4.53;;;3.00;;
6834;SDS011;3455;42.150;24.734;2022-10-31T06:08:03;8.30;;;3.60;;
6834;SDS011;3455;42.150;24.734;2022-10-31T06:10:30;9.13;;;2.90;;
6834;SDS011;3455;42.150;24.734;2022-10-31T06:12:56;3.42;;;2.83;;
6834;SDS011;3455;42.150;24.734;2022-10-31T06:15:23;7.07;;;3.00;;
6834;SDS011;3455;42.150;24.734;2022-10-31T06:17:58;10.43;;;2.97;;
6834;SDS011;3455;42.150;24.734;2022-10-31T06:20:26;4.13;;;2.90;;
6834;SDS011;3455;42.150;24.734;2022-10-31T06:22:53;8.00;;;3.05;;
6834;SDS011;3455;42.150;24.734;2022-10-31T06:25:19;10.27;;;4.18;;
6834;SDS011;3455;42.150;24.734;2022-10-31T06:27:46;4.90;;;2.80;;
6834;SDS011;3455;42.150;24.734;2022-10-31T06:30:13;4.75;;;3.28;;
6834;SDS011;3455;42.150;24.734;2022-10-31T06:32:40;3.53;;;2.88;;
6834;SDS011;3455;42.150;24.734;2022-10-31T06:35:08;6.85;;;2.95;;
6834;SDS011;3455;42.150;24.734;2022-10-31T06:37:36;6.70;;;3.45;;
6834;SDS011;3455;42.150;24.734;2022-10-31T06:40:03;8.15;;;2.92;;
6834;SDS011;3455;42.150;24.734;2022-10-31T06:42:30;5.45;;;2.83;;
6834;SDS011;3455;42.150;24.734;2022-10-31T06:44:57;5.88;;;3.05;;
6834;SDS011;3455;42.150;24.734;2022-10-31T06:47:24;4.78;;;2.63;;
6834;SDS011;3455;42.150;24.734;2022-10-31T06:49:50;4.50;;;2.92;;
6834;SDS011;3455;42.150;24.734;2022-10-31T06:52:18;6.43;;;3.28;;
6834;SDS011;3455;42.150;24.734;2022-10-31T06:54:45;5.18;;;2.75;;
6834;SDS011;3455;42.150;24.734;2022-10-31T06:57:12;4.07;;;2.63;;
6834;SDS011;3455;42.150;24.734;2022-10-31T06:59:38;5.85;;;3.45;;
6834;SDS011;3455;42.150;24.734;2022-10-31T07:02:07;4.78;;;2.55;;
6834;SDS011;3455;42.150;24.734;2022-10-31T07:04:34;6.72;;;3.03;;
6834;SDS011;3455;42.150;24.734;2022-10-31T07:07:01;7.82;;;2.85;;
6834;SDS011;3455;42.150;24.734;2022-10-31T07:09:29;3.08;;;2.50;;
6834;SDS011;3455;42.150;24.734;2022-10-31T07:11:56;7.80;;;2.97;;
6834;SDS011;3455;42.150;24.734;2022-10-31T07:14:23;9.98;;;2.83;;
6834;SDS011;3455;42.150;24.734;2022-10-31T07:16:49;3.72;;;2.20;;
6834;SDS011;3455;42.150;24.734;2022-10-31T07:19:17;5.50;;;2.70;;
6834;SDS011;3455;42.150;24.734;2022-10-31T07:21:44;4.10;;;3.20;;
6834;SDS011;3455;42.150;24.734;2022-10-31T07:24:10;6.90;;;2.70;;
6834;SDS011;3455;42.150;24.734;2022-10-31T07:26:38;10.18;;;3.65;;
6834;SDS011;3455;42.150;24.734;2022-10-31T07:29:05;6.38;;;3.20;;
6834;SDS011;3455;42.150;24.734;2022-10-31T07:31:32;4.82;;;2.88;;
6834;SDS011;3455;42.150;24.734;2022-10-31T07:33:58;4.75;;;2.78;;
6834;SDS011;3455;42.150;24.734;2022-10-31T07:36:25;7.57;;;2.92;;
6834;SDS011;3455;42.150;24.734;2022-10-31T07:38:52;6.47;;;3.08;;
6834;SDS011;3455;42.150;24.734;2022-10-31T07:41:19;3.83;;;2.75;;
6834;SDS011;3455;42.150;24.734;2022-10-31T07:43:48;10.13;;;3.38;;
6834;SDS011;3455;42.150;24.734;2022-10-31T07:46:14;4.78;;;3.00;;
6834;SDS011;3455;42.150;24.734;2022-10-31T07:48:41;6.07;;;3.30;;
6834;SDS011;3455;42.150;24.734;2022-10-31T07:51:08;4.88;;;3.00;;
6834;SDS011;3455;42.150;24.734;2022-10-31T07:53:35;7.53;;;3.60;;
6834;SDS011;3455;42.150;24.734;2022-10-31T07:56:01;4.43;;;2.47;;
6834;SDS011;3455;42.150;24.734;2022-10-31T07:58:28;12.93;;;3.00;;
6834;SDS011;3455;42.150;24.734;2022-10-31T08:00:57;4.25;;;3.05;;
6834;SDS011;3455;42.150;24.734;2022-10-31T08:03:23;6.47;;;3.20;;
6834;SDS011;3455;42.150;24.734;2022-10-31T08:05:50;6.38;;;2.63;;
6834;SDS011;3455;42.150;24.734;2022-10-31T08:08:17;9.02;;;2.92;;
6834;SDS011;3455;42.150;24.734;2022-10-31T08:10:44;2.97;;;2.75;;
6834;SDS011;3455;42.150;24.734;2022-10-31T08:13:11;10.48;;;3.00;;
6834;SDS011;3455;42.150;24.734;2022-10-31T08:15:39;4.38;;;3.25;;
6834;SDS011;3455;42.150;24.734;2022-10-31T08:18:10;8.18;;;3.55;;
6834;SDS011;3455;42.150;24.734;2022-10-31T08:20:38;5.30;;;3.33;;
6834;SDS011;3455;42.150;24.734;2022-10-31T08:23:04;7.70;;;3.75;;
6834;SDS011;3455;42.150;24.734;2022-10-31T08:25:32;8.30;;;3.05;;
6834;SDS011;3455;42.150;24.734;2022-10-31T08:28:00;7.63;;;2.70;;
6834;SDS011;3455;42.150;24.734;2022-10-31T08:30:28;4.78;;;2.65;;
6834;SDS011;3455;42.150;24.734;2022-10-31T08:32:57;15.93;;;3.55;;
6834;SDS011;3455;42.150;24.734;2022-10-31T08:35:26;10.80;;;3.45;;
6834;SDS011;3455;42.150;24.734;2022-10-31T08:37:53;10.00;;;3.63;;
6834;SDS011;3455;42.150;24.734;2022-10-31T08:40:20;5.75;;;2.50;;
6834;SDS011;3455;42.150;24.734;2022-10-31T08:42:47;11.07;;;3.17;;
6834;SDS011;3455;42.150;24.734;2022-10-31T08:45:14;3.58;;;3.38;;
6834;SDS011;3455;42.150;24.734;2022-10-31T08:47:40;16.55;;;4.40;;
6834;SDS011;3455;42.150;24.734;2022-10-31T08:50:07;8.50;;;3.38;;
6834;SDS011;3455;42.150;24.734;2022-10-31T08:52:36;3.53;;;3.22;;
6834;SDS011;3455;42.150;24.734;2022-10-31T08:55:02;14.25;;;3.47;;
6834;SDS011;3455;42.150;24.734;2022-10-31T08:57:30;9.32;;;3.20;;
6834;SDS011;3455;42.150;24.734;2022-10-31T08:59:56;9.32;;;3.15;;
6834;SDS011;3455;42.150;24.734;2022-10-31T09:02:23;12.02;;;3.55;;
6834;SDS011;3455;42.150;24.734;2022-10-31T09:04:50;5.18;;;2.58;;
6834;SDS011;3455;42.150;24.734;2022-10-31T09:07:16;9.20;;;3.13;;
6834;SDS011;3455;42.150;24.734;2022-10-31T09:09:44;4.45;;;2.72;;
6834;SDS011;3455;42.150;24.734;2022-10-31T09:12:11;8.00;;;2.83;;
6834;SDS011;3455;42.150;24.734;2022-10-31T09:14:38;5.03;;;3.20;;
6834;SDS011;3455;42.150;24.734;2022-10-31T09:17:06;8.65;;;3.55;;
6834;SDS011;3455;42.150;24.734;2022-10-31T09:19:34;6.63;;;3.25;;
6834;SDS011;3455;42.150;24.734;2022-10-31T09:22:02;11.50;;;2.97;;
6834;SDS011;3455;42.150;24.734;2022-10-31T09:24:29;11.20;;;3.55;;
6834;SDS011;3455;42.150;24.734;2022-10-31T09:26:57;4.03;;;2.22;;
6834;SDS011;3455;42.150;24.734;2022-10-31T09:29:24;10.65;;;3.80;;
6834;SDS011;3455;42.150;24.734;2022-10-31T09:31:51;4.28;;;2.65;;
6834;SDS011;3455;42.150;24.734;2022-10-31T09:34:18;5.60;;;2.78;;
6834;SDS011;3455;42.150;24.734;2022-10-31T09:36:44;6.38;;;2.97;;
6834;SDS011;3455;42.150;24.734;2022-10-31T09:39:11;5.75;;;3.42;;
6834;SDS011;3455;42.150;24.734;2022-10-31T09:41:46;9.18;;;3.10;;
6834;SDS011;3455;42.150;24.734;2022-10-31T09:44:24;4.72;;;3.13;;
6834;SDS011;3455;42.150;24.734;2022-10-31T09:46:58;5.22;;;3.03;;
6834;SDS011;3455;42.150;24.734;2022-10-31T09:49:33;11.50;;;3.55;;
6834;SDS011;3455;42.150;24.734;2022-10-31T09:52:10;4.60;;;3.28;;
6834;SDS011;3455;42.150;24.734;2022-10-31T09:54:44;10.32;;;3.00;;
6834;SDS011;3455;42.150;24.734;2022-10-31T09:57:14;3.30;;;2.35;;
6834;SDS011;3455;42.150;24.734;2022-10-31T09:59:45;2.97;;;2.08;;
6834;SDS011;3455;42.150;24.734;2022-10-31T10:02:15;5.25;;;2.40;;
6834;SDS011;3455;42.150;24.734;2022-10-31T10:04:48;9.23;;;2.67;;
6834;SDS011;3455;42.150;24.734;2022-10-31T10:07:22;4.30;;;2.47;;
6834;SDS011;3455;42.150;24.734;2022-10-31T10:09:55;4.70;;;2.60;;
6834;SDS011;3455;42.150;24.734;2022-10-31T10:12:26;10.40;;;3.00;;
6834;SDS011;3455;42.150;24.734;2022-10-31T10:15:19;5.63;;;2.00;;
6834;SDS011;3455;42.150;24.734;2022-10-31T10:17:58;5.15;;;2.13;;
6834;SDS011;3455;42.150;24.734;2022-10-31T10:20:34;4.18;;;2.20;;
6834;SDS011;3455;42.150;24.734;2022-10-31T10:23:11;11.30;;;3.08;;
6834;SDS011;3455;42.150;24.734;2022-10-31T10:25:50;2.28;;;2.03;;
6834;SDS011;3455;42.150;24.734;2022-10-31T10:28:27;4.32;;;2.83;;
6834;SDS011;3455;42.150;24.734;2022-10-31T10:31:05;4.90;;;2.75;;
6834;SDS011;3455;42.150;24.734;2022-10-31T10:33:38;3.05;;;2.13;;
6834;SDS011;3455;42.150;24.734;2022-10-31T10:36:10;22.98;;;3.35;;
6834;SDS011;3455;42.150;24.734;2022-10-31T10:38:43;6.65;;;2.30;;
6834;SDS011;3455;42.150;24.734;2022-10-31T10:41:16;2.28;;;1.95;;
6834;SDS011;3455;42.150;24.734;2022-10-31T10:43:44;4.55;;;1.95;;
6834;SDS011;3455;42.150;24.734;2022-10-31T10:46:17;5.53;;;2.10;;
6834;SDS011;3455;42.150;24.734;2022-10-31T10:49:06;3.58;;;2.15;;
6834;SDS011;3455;42.150;24.734;2022-10-31T10:51:38;2.70;;;2.00;;
6834;SDS011;3455;42.150;24.734;2022-10-31T10:57:21;4.95;;;2.22;;
6834;SDS011;3455;42.150;24.734;2022-10-31T10:59:53;3.83;;;2.10;;
6834;SDS011;3455;42.150;24.734;2022-10-31T11:02:22;6.75;;;2.55;;
6834;SDS011;3455;42.150;24.734;2022-10-31T11:04:50;2.80;;;1.80;;
6834;SDS011;3455;42.150;24.734;2022-10-31T11:07:19;3.88;;;2.03;;
6834;SDS011;3455;42.150;24.734;2022-10-31T11:09:46;9.35;;;2.53;;
6834;SDS011;3455;42.150;24.734;2022-10-31T11:12:16;2.78;;;2.33;;
6834;SDS011;3455;42.150;24.734;2022-10-31T11:14:46;5.70;;;2.65;;
6834;SDS011;3455;42.150;24.734;2022-10-31T11:17:26;5.53;;;2.55;;
6834;SDS011;3455;42.150;24.734;2022-10-31T11:20:00;4.18;;;1.60;;
6834;SDS011;3455;42.150;24.734;2022-10-31T11:22:31;5.47;;;2.30;;
6834;SDS011;3455;42.150;24.734;2022-10-31T11:24:58;7.03;;;1.98;;
6834;SDS011;3455;42.150;24.734;2022-10-31T11:27:25;4.50;;;2.00;;
6834;SDS011;3455;42.150;24.734;2022-10-31T11:29:52;3.65;;;1.70;;
6834;SDS011;3455;42.150;24.734;2022-10-31T11:32:30;5.35;;;2.30;;
6834;SDS011;3455;42.150;24.734;2022-10-31T11:34:58;8.98;;;2.42;;
6834;SDS011;3455;42.150;24.734;2022-10-31T11:37:28;7.35;;;2.50;;
6834;SDS011;3455;42.150;24.734;2022-10-31T11:40:00;3.63;;;2.30;;
6834;SDS011;3455;42.150;24.734;2022-10-31T11:42:34;5.43;;;2.67;;
6834;SDS011;3455;42.150;24.734;2022-10-31T11:45:06;9.88;;;2.15;;
6834;SDS011;3455;42.150;24.734;2022-10-31T11:47:42;6.55;;;2.40;;
6834;SDS011;3455;42.150;24.734;2022-10-31T11:50:17;3.25;;;2.17;;
6834;SDS011;3455;42.150;24.734;2022-10-31T11:52:47;3.58;;;2.30;;
6834;SDS011;3455;42.150;24.734;2022-10-31T11:55:17;4.65;;;2.42;;
6834;SDS011;3455;42.150;24.734;2022-10-31T11:57:56;3.55;;;2.05;;
6834;SDS011;3455;42.150;24.734;2022-10-31T12:00:24;3.97;;;2.25;;
6834;SDS011;3455;42.150;24.734;2022-10-31T12:03:03;7.65;;;2.30;;
6834;SDS011;3455;42.150;24.734;2022-10-31T12:05:36;4.90;;;3.40;;
6834;SDS011;3455;42.150;24.734;2022-10-31T12:08:06;7.03;;;2.58;;
6834;SDS011;3455;42.150;24.734;2022-10-31T12:10:36;25.77;;;3.72;;
6834;SDS011;3455;42.150;24.734;2022-10-31T12:13:27;4.53;;;2.50;;
6834;SDS011;3455;42.150;24.734;2022-10-31T12:16:00;5.45;;;2.08;;
6834;SDS011;3455;42.150;24.734;2022-10-31T12:18:40;5.78;;;2.35;;
6834;SDS011;3455;42.150;24.734;2022-10-31T12:21:22;2.58;;;1.85;;
6834;SDS011;3455;42.150;24.734;2022-10-31T12:24:04;4.63;;;2.00;;
6834;SDS011;3455;42.150;24.734;2022-10-31T12:26:41;3.58;;;1.88;;
6834;SDS011;3455;42.150;24.734;2022-10-31T12:29:17;2.80;;;2.08;;
6834;SDS011;3455;42.150;24.734;2022-10-31T12:31:57;3.55;;;2.00;;
6834;SDS011;3455;42.150;24.734;2022-10-31T12:34:52;3.40;;;1.85;;
6834;SDS011;3455;42.150;24.734;2022-10-31T12:37:33;5.13;;;2.78;;
6834;SDS011;3455;42.150;24.734;2022-10-31T12:40:18;3.20;;;2.28;;
6834;SDS011;3455;42.150;24.734;2022-10-31T12:43:01;5.15;;;2.22;;
6834;SDS011;3455;42.150;24.734;2022-10-31T12:45:44;5.88;;;1.58;;
6834;SDS011;3455;42.150;24.734;2022-10-31T12:48:24;5.30;;;2.33;;
6834;SDS011;3455;42.150;24.734;2022-10-31T12:51:12;6.97;;;2.80;;
6834;SDS011;3455;42.150;24.734;2022-10-31T12:53:49;3.10;;;2.10;;
6834;SDS011;3455;42.150;24.734;2022-10-31T12:56:31;8.98;;;2.35;;
6834;SDS011;3455;42.150;24.734;2022-10-31T12:59:09;12.23;;;2.22;;
6834;SDS011;3455;42.150;24.734;2022-10-31T13:01:45;20.00;;;2.60;;
6834;SDS011;3455;42.150;24.734;2022-10-31T13:04:18;15.63;;;2.95;;
6834;SDS011;3455;42.150;24.734;2022-10-31T13:06:57;33.20;;;3.70;;
6834;SDS011;3455;42.150;24.734;2022-10-31T13:09:29;8.85;;;1.95;;
6834;SDS011;3455;42.150;24.734;2022-10-31T13:12:01;6.10;;;2.08;;
6834;SDS011;3455;42.150;24.734;2022-10-31T13:14:34;5.93;;;2.08;;
6834;SDS011;3455;42.150;24.734;2022-10-31T13:17:05;12.10;;;2.65;;
6834;SDS011;3455;42.150;24.734;2022-10-31T13:19:34;5.38;;;2.05;;
6834;SDS011;3455;42.150;24.734;2022-10-31T13:22:06;5.82;;;2.40;;
6834;SDS011;3455;42.150;24.734;2022-10-31T13:24:36;7.50;;;2.80;;
6834;SDS011;3455;42.150;24.734;2022-10-31T13:27:09;15.68;;;2.92;;
6834;SDS011;3455;42.150;24.734;2022-10-31T13:29:42;4.50;;;2.00;;
6834;SDS011;3455;42.150;24.734;2022-10-31T13:32:17;8.68;;;2.10;;
6834;SDS011;3455;42.150;24.734;2022-10-31T13:34:46;5.22;;;2.33;;
6834;SDS011;3455;42.150;24.734;2022-10-31T13:37:19;3.60;;;1.65;;
6834;SDS011;3455;42.150;24.734;2022-10-31T13:40:04;5.20;;;2.22;;
6834;SDS011;3455;42.150;24.734;2022-10-31T13:42:41;3.13;;;2.13;;
6834;SDS011;3455;42.150;24.734;2022-10-31T13:45:17;3.72;;;1.85;;
6834;SDS011;3455;42.150;24.734;2022-10-31T13:47:54;6.97;;;2.75;;
6834;SDS011;3455;42.150;24.734;2022-10-31T13:50:26;5.72;;;2.88;;
6834;SDS011;3455;42.150;24.734;2022-10-31T13:55:49;9.30;;;2.70;;
6834;SDS011;3455;42.150;24.734;2022-10-31T13:58:29;7.00;;;2.20;;
6834;SDS011;3455;42.150;24.734;2022-10-31T14:01:04;8.68;;;2.30;;
6834;SDS011;3455;42.150;24.734;2022-10-31T14:03:44;7.25;;;3.97;;
6834;SDS011;3455;42.150;24.734;2022-10-31T14:06:12;12.70;;;2.72;;
6834;SDS011;3455;42.150;24.734;2022-10-31T14:08:46;5.10;;;4.40;;
6834;SDS011;3455;42.150;24.734;2022-10-31T14:11:20;6.78;;;2.53;;
6834;SDS011;3455;42.150;24.734;2022-10-31T14:13:49;9.15;;;2.38;;
6834;SDS011;3455;42.150;24.734;2022-10-31T14:16:17;4.55;;;2.30;;
6834;SDS011;3455;42.150;24.734;2022-10-31T14:18:47;15.18;;;3.03;;
6834;SDS011;3455;42.150;24.734;2022-10-31T14:21:25;24.92;;;5.07;;
6834;SDS011;3455;42.150;24.734;2022-10-31T14:23:54;33.80;;;6.25;;
6834;SDS011;3455;42.150;24.734;2022-10-31T14:26:33;10.25;;;4.32;;
6834;SDS011;3455;42.150;24.734;2022-10-31T14:29:21;7.55;;;2.90;;
6834;SDS011;3455;42.150;24.734;2022-10-31T14:31:54;8.68;;;2.55;;
6834;SDS011;3455;42.150;24.734;2022-10-31T14:34:24;6.93;;;2.53;;
6834;SDS011;3455;42.150;24.734;2022-10-31T14:36:59;10.43;;;2.78;;
6834;SDS011;3455;42.150;24.734;2022-10-31T14:39:45;12.65;;;2.72;;
6834;SDS011;3455;42.150;24.734;2022-10-31T14:42:29;9.18;;;3.03;;
6834;SDS011;3455;42.150;24.734;2022-10-31T14:45:17;11.73;;;3.47;;
6834;SDS011;3455;42.150;24.734;2022-10-31T14:47:56;12.57;;;4.25;;
6834;SDS011;3455;42.150;24.734;2022-10-31T14:50:44;15.38;;;4.55;;
6834;SDS011;3455;42.150;24.734;2022-10-31T14:53:16;10.60;;;3.90;;
6834;SDS011;3455;42.150;24.734;2022-10-31T14:55:48;7.15;;;2.80;;
6834;SDS011;3455;42.150;24.734;2022-10-31T14:58:19;9.82;;;3.97;;
6834;SDS011;3455;42.150;24.734;2022-10-31T15:00:49;18.08;;;5.00;;
6834;SDS011;3455;42.150;24.734;2022-10-31T15:03:21;21.17;;;5.03;;
6834;SDS011;3455;42.150;24.734;2022-10-31T15:05:53;37.08;;;6.18;;
6834;SDS011;3455;42.150;24.734;2022-10-31T15:08:27;31.95;;;6.80;;
6834;SDS011;3455;42.150;24.734;2022-10-31T15:10:57;42.05;;;6.35;;
6834;SDS011;3455;42.150;24.734;2022-10-31T15:13:26;27.23;;;8.02;;
6834;SDS011;3455;42.150;24.734;2022-10-31T15:15:53;39.42;;;11.63;;
6834;SDS011;3455;42.150;24.734;2022-10-31T15:18:22;46.33;;;12.65;;
6834;SDS011;3455;42.150;24.734;2022-10-31T15:20:51;23.63;;;7.20;;
6834;SDS011;3455;42.150;24.734;2022-10-31T15:23:21;19.52;;;7.43;;
6834;SDS011;3455;42.150;24.734;2022-10-31T15:25:49;15.10;;;4.68;;
6834;SDS011;3455;42.150;24.734;2022-10-31T15:28:21;17.35;;;4.30;;
6834;SDS011;3455;42.150;24.734;2022-10-31T15:30:51;6.93;;;3.33;;